createdAt,value
2019-04-23T00:00:07.525Z,3.00
2019-04-23T00:02:50.701Z,3.47
2019-04-23T00:05:27.150Z,3.43
2019-04-23T00:08:11.307Z,3.47
2019-04-23T00:10:19.412Z,3.50
2019-04-23T00:15:20.197Z,3.97
2019-04-23T00:17:52.054Z,3.10
2019-04-23T00:22:51.693Z,3.43
2019-04-23T00:27:50.422Z,3.17
2019-04-23T00:30:27.592Z,3.50
2019-04-23T00:33:04.023Z,4.03
2019-04-23T00:35:18.064Z,3.70
2019-04-23T00:37:51.456Z,3.40
2019-04-23T00:40:30.308Z,3.60
2019-04-23T00:43:08.648Z,3.40
2019-04-23T00:45:24.542Z,3.53
2019-04-23T00:47:54.722Z,3.80
2019-04-23T00:50:28.359Z,3.60
2019-04-23T00:52:55.540Z,3.57
2019-04-23T00:55:21.209Z,3.40
2019-04-23T00:57:57.910Z,3.80
2019-04-23T01:00:45.972Z,3.30
2019-04-23T01:02:59.062Z,3.80
2019-04-23T01:05:30.287Z,3.40
2019-04-23T01:07:58.643Z,3.60
2019-04-23T01:10:36.309Z,3.63
2019-04-23T01:13:11.314Z,3.33
2019-04-23T01:18:10.913Z,3.50
2019-04-23T01:20:44.580Z,3.40
2019-04-23T01:22:50.752Z,3.43
2019-04-23T01:25:36.411Z,3.43
2019-04-23T01:28:23.203Z,3.33
2019-04-23T01:30:57.434Z,3.20
2019-04-23T01:33:31.337Z,3.30
2019-04-23T01:38:27.887Z,3.40
2019-04-23T01:43:26.737Z,3.20
2019-04-23T01:45:49.458Z,3.60
2019-04-23T01:48:29.991Z,3.50
2019-04-23T01:50:55.010Z,3.30
2019-04-23T01:53:26.802Z,3.17
2019-04-23T01:59:02.493Z,3.10
2019-04-23T02:00:53.368Z,3.63
2019-04-23T02:03:42.599Z,3.10
2019-04-23T02:08:28.357Z,3.20
2019-04-23T02:10:58.759Z,3.43
2019-04-23T02:13:33.867Z,2.93
2019-04-23T02:15:53.478Z,3.17
2019-04-23T02:18:45.606Z,3.20
2019-04-23T02:21:10.699Z,2.93
2019-04-23T02:26:05.923Z,3.10
2019-04-23T02:28:42.870Z,3.30
2019-04-23T02:31:21.324Z,3.40
2019-04-23T02:33:45.089Z,3.30
2019-04-23T02:41:26.768Z,3.10
2019-04-23T02:46:05.730Z,3.10
2019-04-23T02:49:00.010Z,3.20
2019-04-23T02:51:12.548Z,3.37
2019-04-23T02:56:12.300Z,3.13
2019-04-23T02:58:42.214Z,3.33
2019-04-23T03:01:22.382Z,3.40
2019-04-23T03:03:59.588Z,3.30
2019-04-23T03:08:46.361Z,3.50
2019-04-23T03:11:23.404Z,3.87
2019-04-23T03:16:38.004Z,3.53
2019-04-23T03:21:35.658Z,3.43
2019-04-23T03:39:18.001Z,3.83
2019-04-23T03:44:22.828Z,3.47
2019-04-23T03:46:49.958Z,3.60
2019-04-23T03:49:13.941Z,3.87
2019-04-23T03:51:51.747Z,3.60
2019-04-23T03:54:42.215Z,4.00
2019-04-23T03:57:17.043Z,5.07
2019-04-23T03:59:27.110Z,20.70
2019-04-23T04:02:03.469Z,6.87
2019-04-23T04:04:33.234Z,5.33
2019-04-23T04:07:15.611Z,8.70
2019-04-23T04:11:45.879Z,4.67
2019-04-23T04:17:07.400Z,5.30
2019-04-23T04:26:58.077Z,6.97
2019-04-23T04:29:27.552Z,5.53
2019-04-23T04:31:53.566Z,7.23
2019-04-23T04:34:53.361Z,5.90
2019-04-23T04:37:18.337Z,9.30
2019-04-23T04:39:49.761Z,9.60
2019-04-23T04:44:37.775Z,4.77
2019-04-23T04:46:50.485Z,5.70
2019-04-23T04:54:21.284Z,6.30
2019-04-23T04:59:26.265Z,4.47
2019-04-23T05:02:00.381Z,4.50
2019-04-23T05:04:26.745Z,5.00
2019-04-23T05:07:02.622Z,4.60
2019-04-23T05:09:37.610Z,5.17
2019-04-23T05:14:37.357Z,4.60
2019-04-23T05:21:58.687Z,5.73
2019-04-23T05:26:46.507Z,5.30
2019-04-23T05:29:14.928Z,5.07
2019-04-23T05:31:51.947Z,5.80
2019-04-23T05:34:23.452Z,5.00
2019-04-23T05:36:53.736Z,5.30
2019-04-23T05:39:29.115Z,5.37
2019-04-23T05:42:07.115Z,5.30
2019-04-23T05:44:29.708Z,5.07
2019-04-23T05:46:50.805Z,6.23
2019-04-23T05:49:26.187Z,5.53
2019-04-23T05:51:55.447Z,5.80
2019-04-23T05:54:27.705Z,6.50
2019-04-23T05:56:53.906Z,5.90
2019-04-23T05:59:25.806Z,5.37
2019-04-23T06:04:30.583Z,5.43
2019-04-23T06:09:25.148Z,5.17
2019-04-23T06:12:01.404Z,5.00
2019-04-23T06:14:25.038Z,5.40
2019-04-23T06:16:57.478Z,5.90
2019-04-23T06:19:21.552Z,5.33
2019-04-23T06:27:13.482Z,5.37
2019-04-23T06:29:41.496Z,5.10
2019-04-23T06:31:55.296Z,6.03
2019-04-23T06:36:58.931Z,5.30
2019-04-23T06:39:34.467Z,5.07
2019-04-23T06:44:35.854Z,5.60
2019-04-23T06:47:05.702Z,5.93
2019-04-23T06:49:37.786Z,7.33
2019-04-23T06:52:14.945Z,5.53
2019-04-23T06:59:30.747Z,5.70
2019-04-23T07:02:08.402Z,6.90
2019-04-23T07:09:31.166Z,5.70
2019-04-23T07:12:07.220Z,5.80
2019-04-23T07:14:44.169Z,7.67
2019-04-23T07:17:02.689Z,7.13
2019-04-23T07:19:37.446Z,5.87
2019-04-23T07:22:14.564Z,6.63
2019-04-23T07:24:34.564Z,7.53
2019-04-23T07:27:06.470Z,6.23
2019-04-23T07:29:47.793Z,6.27
2019-04-23T07:32:05.380Z,6.10
2019-04-23T07:34:39.791Z,7.87
2019-04-23T07:37:08.705Z,6.30
2019-04-23T07:39:58.829Z,6.63
2019-04-23T07:42:34.434Z,5.77
2019-04-23T07:44:58.082Z,7.80
2019-04-23T07:47:25.095Z,5.97
2019-04-23T07:50:09.463Z,6.80
2019-04-23T07:52:34.133Z,6.23
2019-04-23T07:55:02.590Z,14.87
2019-04-23T07:57:41.629Z,5.97
2019-04-23T08:00:02.515Z,6.23
2019-04-23T08:02:31.295Z,5.77
2019-04-23T08:07:29.743Z,7.70
2019-04-23T08:10:02.402Z,6.20
2019-04-23T08:12:31.483Z,6.70
2019-04-23T08:15:02.255Z,7.37
2019-04-23T08:17:28.106Z,6.90
2019-04-23T08:20:02.049Z,6.70
2019-04-23T08:25:19.222Z,6.60
2019-04-23T08:27:59.385Z,6.80
2019-04-23T08:30:09.388Z,6.53
2019-04-23T08:32:35.133Z,6.40
2019-04-23T08:35:28.489Z,6.00
2019-04-23T08:40:15.131Z,6.90
2019-04-23T08:48:07.629Z,6.60
2019-04-23T08:50:37.174Z,7.87
2019-04-23T08:53:17.699Z,6.80
2019-04-23T08:55:41.901Z,6.27
2019-04-23T08:58:06.167Z,7.00
2019-04-23T09:00:42.451Z,7.97
2019-04-23T09:03:11.122Z,7.43
2019-04-23T09:10:42.307Z,7.87
2019-04-23T09:13:34.813Z,7.73
2019-04-23T09:15:48.324Z,9.90
2019-04-23T09:23:13.338Z,8.30
2019-04-23T09:28:16.059Z,6.40
2019-04-23T09:30:49.585Z,7.03
2019-04-23T09:33:36.361Z,6.63
2019-04-23T09:36:06.851Z,6.90
2019-04-23T09:38:53.635Z,8.60
2019-04-23T09:41:24.275Z,7.00
2019-04-23T09:43:53.632Z,5.90
2019-04-23T09:46:23.533Z,6.70
2019-04-23T09:49:02.723Z,7.73
2019-04-23T09:54:00.658Z,5.77
2019-04-23T09:56:32.718Z,6.00
2019-04-23T09:59:07.321Z,6.67
2019-04-23T10:03:47.558Z,6.70
2019-04-23T10:06:12.404Z,8.10
2019-04-23T10:08:42.357Z,7.00
2019-04-23T10:11:07.500Z,7.20
2019-04-23T10:13:36.517Z,6.03
2019-04-23T10:16:06.588Z,6.20
2019-04-23T10:18:37.223Z,6.40
2019-04-23T10:21:07.589Z,6.37
2019-04-23T10:23:37.044Z,6.30
2019-04-23T10:26:06.164Z,6.20
2019-04-23T10:28:40.234Z,6.17
2019-04-23T10:31:09.111Z,6.50
2019-04-23T10:33:37.946Z,6.87
2019-04-23T10:36:12.872Z,6.37
2019-04-23T10:38:41.568Z,5.90
2019-04-23T10:41:07.375Z,6.60
2019-04-23T10:43:39.444Z,6.10
2019-04-23T10:46:42.959Z,5.83
2019-04-23T10:52:06.964Z,6.53
2019-04-23T10:57:00.171Z,6.03
2019-04-23T11:02:29.642Z,6.70
2019-04-23T11:07:20.537Z,7.67
2019-04-23T11:09:50.022Z,6.13
2019-04-23T11:12:32.480Z,6.27
2019-04-23T11:14:58.184Z,5.73
2019-04-23T11:17:30.362Z,6.07
2019-04-23T11:22:36.168Z,5.80
2019-04-23T11:24:59.798Z,6.73
2019-04-23T11:27:24.473Z,7.23
2019-04-23T11:30:00.174Z,6.37
2019-04-23T11:32:44.771Z,6.67
2019-04-23T11:37:37.621Z,6.10
2019-04-23T11:39:49.599Z,8.80
2019-04-23T11:44:56.086Z,6.50
2019-04-23T11:47:45.564Z,6.07
2019-04-23T11:49:58.191Z,6.40
2019-04-23T11:52:30.698Z,6.67
2019-04-23T11:54:52.793Z,7.00
2019-04-23T11:59:52.853Z,7.17
2019-04-23T12:02:41.761Z,6.20
2019-04-23T12:05:26.849Z,6.27
2019-04-23T12:07:50.286Z,6.60
2019-04-23T12:10:39.358Z,7.53
2019-04-23T12:13:03.904Z,6.57
2019-04-23T12:15:32.049Z,6.30
2019-04-23T12:18:05.343Z,6.60
2019-04-23T12:23:12.175Z,6.53
2019-04-23T12:25:32.903Z,6.87
2019-04-23T12:27:47.014Z,6.33
2019-04-23T12:33:06.974Z,6.47
2019-04-23T12:35:43.982Z,7.60
2019-04-23T12:38:08.834Z,5.87
2019-04-23T12:43:13.357Z,8.13
2019-04-23T12:45:39.905Z,6.80
2019-04-23T12:48:20.414Z,6.80
2019-04-23T12:50:48.733Z,8.60
2019-04-23T12:53:14.357Z,8.07
2019-04-23T12:55:43.694Z,6.30
2019-04-23T12:58:21.973Z,7.83
2019-04-23T13:00:44.320Z,9.53
2019-04-23T13:05:42.170Z,5.53
2019-04-23T13:10:45.869Z,5.93
2019-04-23T13:13:23.519Z,5.27
2019-04-23T13:18:20.774Z,5.60
2019-04-23T13:20:42.374Z,6.07
2019-04-23T13:28:21.170Z,5.37
2019-04-23T13:30:59.008Z,5.43
2019-04-23T13:38:34.927Z,5.50
2019-04-23T13:41:04.722Z,5.47
2019-04-23T13:43:40.529Z,5.13
2019-04-23T13:48:20.139Z,5.57
2019-04-23T13:50:59.230Z,5.33
2019-04-23T13:53:42.728Z,5.00
2019-04-23T13:55:53.035Z,4.90
2019-04-23T13:58:38.864Z,5.07
2019-04-23T14:03:39.383Z,5.53
2019-04-23T14:11:10.790Z,5.90
2019-04-23T14:13:46.071Z,5.63
2019-04-23T14:16:18.342Z,12.80
2019-04-23T14:21:14.093Z,5.50
2019-04-23T14:24:00.261Z,6.73
2019-04-23T14:26:29.665Z,5.83
2019-04-23T14:28:41.766Z,5.80
2019-04-23T14:33:48.012Z,6.37
2019-04-23T14:36:12.061Z,5.57
2019-04-23T14:41:32.246Z,10.60
2019-04-23T14:43:48.905Z,5.80
2019-04-23T14:46:35.311Z,5.10
2019-04-23T14:48:51.716Z,5.27
2019-04-23T14:51:32.166Z,5.40
2019-04-23T14:58:56.945Z,5.57
2019-04-23T15:01:27.279Z,5.03
2019-04-23T15:03:50.510Z,4.63
2019-04-23T15:09:00.677Z,5.60
2019-04-23T15:11:38.793Z,5.47
2019-04-23T15:13:55.275Z,5.17
2019-04-23T15:19:12.980Z,4.90
2019-04-23T15:21:47.063Z,4.83
2019-04-23T15:24:02.194Z,5.00
2019-04-23T15:27:29.605Z,5.30
2019-04-23T15:28:43.800Z,5.33
2019-04-23T15:31:32.988Z,5.93
2019-04-23T15:34:10.624Z,5.00
2019-04-23T15:39:11.624Z,5.47
2019-04-23T15:41:40.099Z,4.80
2019-04-23T15:44:13.629Z,5.27
2019-04-23T15:46:42.112Z,5.43
2019-04-23T15:51:35.451Z,5.00
2019-04-23T15:56:45.270Z,5.60
2019-04-23T16:01:40.338Z,5.40
2019-04-23T16:03:38.258Z,6.43
2019-04-23T16:06:10.332Z,6.50
2019-04-23T16:09:09.745Z,5.90
2019-04-23T16:19:13.721Z,5.27
2019-04-23T16:24:13.559Z,5.60
2019-04-23T16:26:50.183Z,6.23
2019-04-23T16:29:25.113Z,5.70
2019-04-23T16:31:41.306Z,6.93
2019-04-23T16:34:20.823Z,6.73
2019-04-23T16:39:10.776Z,6.03
2019-04-23T16:41:46.672Z,14.47
2019-04-23T16:44:20.013Z,7.90
2019-04-23T16:46:50.172Z,7.57
2019-04-23T16:49:17.827Z,7.33
2019-04-23T16:51:38.653Z,9.80
2019-04-23T16:54:19.078Z,8.53
2019-04-23T16:57:01.160Z,5.80
2019-04-23T17:06:53.515Z,5.57
2019-04-23T17:09:18.556Z,5.83
2019-04-23T17:11:48.408Z,5.63
2019-04-23T17:14:21.341Z,6.13
2019-04-23T17:19:18.780Z,5.43
2019-04-23T17:21:52.225Z,5.60
2019-04-23T17:26:46.174Z,5.90
2019-04-23T17:29:21.302Z,5.57
2019-04-23T17:32:04.088Z,5.30
2019-04-23T17:34:23.743Z,5.50
2019-04-23T17:36:55.906Z,5.83
2019-04-23T17:39:32.556Z,6.00
2019-04-23T17:47:13.784Z,5.93
2019-04-23T17:49:52.542Z,6.47
2019-04-23T17:54:51.794Z,8.17
2019-04-23T17:57:15.013Z,7.97
2019-04-23T18:00:11.951Z,9.80
2019-04-23T18:05:02.457Z,9.20
2019-04-23T18:07:37.727Z,8.73
2019-04-23T18:10:11.637Z,10.00
2019-04-23T18:14:59.565Z,8.53
2019-04-23T18:17:27.030Z,8.03
2019-04-23T18:22:46.986Z,8.23
2019-04-23T18:25:26.154Z,8.27
2019-04-23T18:30:51.096Z,9.73
2019-04-23T18:33:59.494Z,11.33
2019-04-23T18:35:44.581Z,9.60
2019-04-23T18:38:31.671Z,7.80
2019-04-23T18:41:02.397Z,11.03
2019-04-23T18:45:44.871Z,6.77
2019-04-23T18:53:40.643Z,6.30
2019-04-23T18:56:05.978Z,7.50
2019-04-23T18:58:35.128Z,8.37
2019-04-23T19:01:05.414Z,9.70
2019-04-23T19:11:40.408Z,7.20
2019-04-23T19:13:53.331Z,7.03
2019-04-23T19:16:25.337Z,6.60
2019-04-23T19:18:56.744Z,7.17
2019-04-23T19:21:45.660Z,6.73
2019-04-23T19:26:50.112Z,6.17
2019-04-23T19:28:56.148Z,7.00
2019-04-23T19:31:39.814Z,6.93
2019-04-23T19:34:14.221Z,6.83
2019-04-23T19:36:46.368Z,7.37
2019-04-23T19:39:11.861Z,7.37
2019-04-23T19:41:54.203Z,6.90
2019-04-23T19:44:01.205Z,6.60
2019-04-23T19:46:50.520Z,6.77
2019-04-23T19:49:09.679Z,9.20
2019-04-23T19:51:44.537Z,10.23
2019-04-23T19:56:47.135Z,10.33
2019-04-23T19:59:02.141Z,11.20
2019-04-23T20:01:39.424Z,11.37
2019-04-23T20:04:04.108Z,10.00
2019-04-23T20:06:58.694Z,9.23
2019-04-23T20:11:49.444Z,7.87
2019-04-23T20:14:29.171Z,10.53
2019-04-23T20:16:48.948Z,9.90
2019-04-23T20:19:23.928Z,9.20
2019-04-23T20:21:57.366Z,9.23
2019-04-23T20:26:59.865Z,8.17
2019-04-23T20:34:51.512Z,8.83
2019-04-23T20:37:13.549Z,8.20
2019-04-23T20:39:38.563Z,9.03
2019-04-23T20:49:42.836Z,8.47
2019-04-23T20:52:06.291Z,8.80
2019-04-23T20:54:51.246Z,9.20
2019-04-23T21:05:03.632Z,9.57
2019-04-23T21:07:46.059Z,9.37
2019-04-23T21:17:35.723Z,8.73
2019-04-23T21:20:10.238Z,10.00
2019-04-23T21:22:29.846Z,9.10
2019-04-23T21:25:16.997Z,10.57
2019-04-23T21:30:05.356Z,11.87
2019-04-23T21:45:31.286Z,10.00
2019-04-23T21:50:39.158Z,9.73
2019-04-23T21:55:36.514Z,10.30
2019-04-23T21:58:18.964Z,10.67
2019-04-23T22:00:36.321Z,11.33
2019-04-23T22:03:12.897Z,10.77
2019-04-23T22:05:35.559Z,22.13
2019-04-23T22:08:21.897Z,42.47
2019-04-23T22:10:31.927Z,14.23
2019-04-23T22:13:09.579Z,12.27
2019-04-23T22:15:34.457Z,16.07
2019-04-23T22:18:00.276Z,12.30
2019-04-23T22:20:38.332Z,10.97
2019-04-23T22:25:44.251Z,10.60
2019-04-23T22:27:58.157Z,11.10
2019-04-23T22:30:36.344Z,12.50
2019-04-23T22:33:19.547Z,14.23
2019-04-23T22:35:31.945Z,14.83
2019-04-23T22:38:22.676Z,18.97
2019-04-23T22:40:36.243Z,17.83
2019-04-23T22:45:40.208Z,11.83
2019-04-23T22:48:11.373Z,12.10
2019-04-23T22:50:38.511Z,12.17
2019-04-23T22:55:42.841Z,10.90
2019-04-23T23:00:34.271Z,16.23
2019-04-23T23:03:36.094Z,11.43
2019-04-23T23:08:30.894Z,13.53
2019-04-23T23:13:50.288Z,13.30
2019-04-23T23:16:01.571Z,15.17
2019-04-23T23:23:30.580Z,13.50
2019-04-23T23:26:12.343Z,16.97
2019-04-23T23:28:38.101Z,18.23
2019-04-23T23:33:33.761Z,13.27
2019-04-23T23:36:08.651Z,13.77
2019-04-23T23:43:29.982Z,12.00
2019-04-23T23:46:17.299Z,13.53
2019-04-23T23:48:36.016Z,15.60
2019-04-23T23:51:09.616Z,15.00
2019-04-23T23:53:50.505Z,13.27
2019-04-23T23:56:10.871Z,15.43
2019-04-23T23:58:48.148Z,12.73
